ΕΜΥ, Εθνική Μετεωρολογική Υπηρεσία - Δελτία Καιρού, Προγνώσεις

ΑΕΡΟΝΑΥΤΙΛΙΑ

GREEK AIRPORTS CODES

LGMG 161500Z 15007KT 9999 FEW018TCU SCT025 26/08 Q1016 RMK SCT180=

EUROPEAN AIRPORTS CODES

LFPO 161900Z 23003KT CAVOK 22/11 Q1019 NOSIG=